sensor_id;sensor_type;location;lat;lon;timestamp;pressure;altitude;pressure_sealevel;temperature;humidity
71601;BME280;59446;52.192;4.628;2023-02-03T00:00:27;102514.28;;;16.59;51.26
71601;BME280;59446;52.192;4.628;2023-02-03T00:02:54;102510.00;;;16.55;51.21
71601;BME280;59446;52.192;4.628;2023-02-03T00:05:20;102505.50;;;16.60;51.47
71601;BME280;59446;52.192;4.628;2023-02-03T00:07:47;102510.88;;;16.56;51.53
71601;BME280;59446;52.192;4.628;2023-02-03T00:10:13;102497.75;;;16.54;51.61
71601;BME280;59446;52.192;4.628;2023-02-03T00:12:38;102508.38;;;16.50;51.72
71601;BME280;59446;52.192;4.628;2023-02-03T00:15:04;102516.25;;;16.51;51.63
71601;BME280;59446;52.192;4.628;2023-02-03T00:17:29;102509.25;;;16.50;51.17
71601;BME280;59446;52.192;4.628;2023-02-03T00:19:55;102515.28;;;16.54;51.53
71601;BME280;59446;52.192;4.628;2023-02-03T00:22:20;102516.28;;;16.50;51.53
71601;BME280;59446;52.192;4.628;2023-02-03T00:24:45;102513.69;;;16.48;51.28
71601;BME280;59446;52.192;4.628;2023-02-03T00:27:11;102507.53;;;16.49;51.60
71601;BME280;59446;52.192;4.628;2023-02-03T00:29:36;102526.84;;;16.48;51.37
71601;BME280;59446;52.192;4.628;2023-02-03T00:32:02;102532.97;;;16.49;50.89
71601;BME280;59446;52.192;4.628;2023-02-03T00:34:29;102540.94;;;16.46;51.44
71601;BME280;59446;52.192;4.628;2023-02-03T00:36:55;102541.00;;;16.43;51.32
71601;BME280;59446;52.192;4.628;2023-02-03T00:39:20;102537.56;;;16.41;51.41
71601;BME280;59446;52.192;4.628;2023-02-03T00:41:46;102548.00;;;16.44;51.37
71601;BME280;59446;52.192;4.628;2023-02-03T00:44:13;102548.09;;;16.41;51.65
71601;BME280;59446;52.192;4.628;2023-02-03T00:46:38;102538.47;;;16.40;51.45
71601;BME280;59446;52.192;4.628;2023-02-03T00:49:04;102522.78;;;16.36;51.85
71601;BME280;59446;52.192;4.628;2023-02-03T00:51:29;102527.16;;;16.36;51.35
71601;BME280;59446;52.192;4.628;2023-02-03T00:53:55;102528.91;;;16.37;51.94
71601;BME280;59446;52.192;4.628;2023-02-03T00:56:20;102521.88;;;16.38;51.90
71601;BME280;59446;52.192;4.628;2023-02-03T00:58:46;102511.50;;;16.31;51.96
71601;BME280;59446;52.192;4.628;2023-02-03T01:01:11;102517.56;;;16.35;51.33
71601;BME280;59446;52.192;4.628;2023-02-03T01:03:37;102511.44;;;16.33;51.75
71601;BME280;59446;52.192;4.628;2023-02-03T01:06:13;102508.81;;;16.34;51.68
71601;BME280;59446;52.192;4.628;2023-02-03T01:08:39;102522.88;;;16.33;51.62
71601;BME280;59446;52.192;4.628;2023-02-03T01:11:09;102522.94;;;16.29;51.25
71601;BME280;59446;52.192;4.628;2023-02-03T01:13:36;102529.03;;;16.31;51.89
71601;BME280;59446;52.192;4.628;2023-02-03T01:16:02;102525.59;;;16.29;51.36
71601;BME280;59446;52.192;4.628;2023-02-03T01:18:28;102523.03;;;16.26;51.57
71601;BME280;59446;52.192;4.628;2023-02-03T01:20:53;102516.00;;;16.26;51.12
71601;BME280;59446;52.192;4.628;2023-02-03T01:23:18;102502.09;;;16.23;51.51
71601;BME280;59446;52.192;4.628;2023-02-03T01:25:44;102500.28;;;16.25;51.80
71601;BME280;59446;52.192;4.628;2023-02-03T01:28:09;102473.13;;;16.24;51.34
71601;BME280;59446;52.192;4.628;2023-02-03T01:30:35;102473.91;;;16.28;51.34
71601;BME280;59446;52.192;4.628;2023-02-03T01:33:00;102474.81;;;16.27;51.70
71601;BME280;59446;52.192;4.628;2023-02-03T01:35:25;102477.47;;;16.25;51.70
71601;BME280;59446;52.192;4.628;2023-02-03T01:37:51;102474.94;;;16.22;51.81
71601;BME280;59446;52.192;4.628;2023-02-03T01:40:17;102486.34;;;16.21;52.03
71601;BME280;59446;52.192;4.628;2023-02-03T01:42:42;102490.66;;;16.24;51.85
71601;BME280;59446;52.192;4.628;2023-02-03T01:45:09;102491.66;;;16.20;51.76
71601;BME280;59446;52.192;4.628;2023-02-03T01:47:54;102492.47;;;16.22;51.23
71601;BME280;59446;52.192;4.628;2023-02-03T01:50:26;102497.00;;;16.17;51.46
71601;BME280;59446;52.192;4.628;2023-02-03T01:53:02;102497.81;;;16.19;52.05
71601;BME280;59446;52.192;4.628;2023-02-03T01:55:34;102500.38;;;16.22;51.48
71601;BME280;59446;52.192;4.628;2023-02-03T01:58:04;102490.88;;;16.16;51.30
71601;BME280;59446;52.192;4.628;2023-02-03T02:00:31;102477.81;;;16.13;51.82
71601;BME280;59446;52.192;4.628;2023-02-03T02:02:58;102463.78;;;16.14;51.76
71601;BME280;59446;52.192;4.628;2023-02-03T02:07:55;102462.88;;;16.15;51.56
71601;BME280;59446;52.192;4.628;2023-02-03T02:10:22;102458.50;;;16.14;51.71
71601;BME280;59446;52.192;4.628;2023-02-03T02:12:48;102465.41;;;16.18;52.05
71601;BME280;59446;52.192;4.628;2023-02-03T02:15:14;102466.41;;;16.14;51.77
71601;BME280;59446;52.192;4.628;2023-02-03T02:18:17;102471.69;;;16.13;51.51
71601;BME280;59446;52.192;4.628;2023-02-03T02:23:56;102470.03;;;16.09;52.08
71601;BME280;59446;52.192;4.628;2023-02-03T02:40:51;102469.13;;;16.10;51.77
71601;BME280;59446;52.192;4.628;2023-02-03T02:43:40;102461.28;;;16.08;51.47
71601;BME280;59446;52.192;4.628;2023-02-03T02:46:19;102469.28;;;16.03;51.28
71601;BME280;59446;52.192;4.628;2023-02-03T02:48:54;102456.16;;;16.03;51.38
71601;BME280;59446;52.192;4.628;2023-02-03T02:51:22;102456.19;;;16.02;51.58
71601;BME280;59446;52.192;4.628;2023-02-03T02:53:52;102446.66;;;15.98;51.52
71601;BME280;59446;52.192;4.628;2023-02-03T02:56:18;102434.22;;;16.04;51.49
71601;BME280;59446;52.192;4.628;2023-02-03T02:58:47;102441.25;;;16.04;51.25
71601;BME280;59446;52.192;4.628;2023-02-03T03:01:14;102441.44;;;15.96;51.67
71601;BME280;59446;52.192;4.628;2023-02-03T03:03:41;102437.78;;;16.02;51.89
71601;BME280;59446;52.192;4.628;2023-02-03T03:06:17;102447.44;;;16.01;51.42
71601;BME280;59446;52.192;4.628;2023-02-03T03:11:23;102440.59;;;15.96;51.70
71601;BME280;59446;52.192;4.628;2023-02-03T03:13:52;102450.03;;;16.03;51.35
71601;BME280;59446;52.192;4.628;2023-02-03T03:16:23;102448.44;;;15.97;52.09
71601;BME280;59446;52.192;4.628;2023-02-03T03:18:57;102445.78;;;15.97;51.53
71601;BME280;59446;52.192;4.628;2023-02-03T03:21:32;102436.28;;;15.93;51.90
71601;BME280;59446;52.192;4.628;2023-02-03T03:24:04;102437.22;;;15.91;51.81
71601;BME280;59446;52.192;4.628;2023-02-03T03:26:35;102425.81;;;15.92;51.44
71601;BME280;59446;52.192;4.628;2023-02-03T03:31:47;102454.75;;;15.90;51.43
71601;BME280;59446;52.192;4.628;2023-02-03T03:34:13;102454.63;;;15.95;51.85
71601;BME280;59446;52.192;4.628;2023-02-03T03:36:45;102445.00;;;15.94;52.02
71601;BME280;59446;52.192;4.628;2023-02-03T03:39:33;102444.22;;;15.90;52.08
71601;BME280;59446;52.192;4.628;2023-02-03T03:44:55;102447.00;;;15.84;51.97
71601;BME280;59446;52.192;4.628;2023-02-03T03:47:34;102444.38;;;15.84;52.05
71601;BME280;59446;52.192;4.628;2023-02-03T03:50:02;102440.88;;;15.84;51.81
71601;BME280;59446;52.192;4.628;2023-02-03T03:52:32;102442.56;;;15.86;51.46
71601;BME280;59446;52.192;4.628;2023-02-03T03:55:01;102458.28;;;15.88;51.43
71601;BME280;59446;52.192;4.628;2023-02-03T03:57:32;102453.97;;;15.85;52.05
71601;BME280;59446;52.192;4.628;2023-02-03T04:00:03;102450.53;;;15.83;51.90
71601;BME280;59446;52.192;4.628;2023-02-03T04:02:31;102460.09;;;15.86;52.13
71601;BME280;59446;52.192;4.628;2023-02-03T04:04:59;102466.19;;;15.86;52.13
71601;BME280;59446;52.192;4.628;2023-02-03T04:07:37;102470.66;;;15.83;52.14
71601;BME280;59446;52.192;4.628;2023-02-03T04:10:06;102468.94;;;15.82;51.57
71601;BME280;59446;52.192;4.628;2023-02-03T04:12:36;102466.34;;;15.80;51.73
71601;BME280;59446;52.192;4.628;2023-02-03T04:15:02;102474.22;;;15.80;51.80
71601;BME280;59446;52.192;4.628;2023-02-03T04:17:27;102466.31;;;15.82;51.91
71601;BME280;59446;52.192;4.628;2023-02-03T04:19:53;102466.31;;;15.82;52.13
71601;BME280;59446;52.192;4.628;2023-02-03T04:22:18;102450.53;;;15.83;51.43
71601;BME280;59446;52.192;4.628;2023-02-03T04:24:43;102449.66;;;15.83;51.57
71601;BME280;59446;52.192;4.628;2023-02-03T04:27:09;102458.44;;;15.82;52.29
71601;BME280;59446;52.192;4.628;2023-02-03T04:29:34;102469.84;;;15.81;52.35
71601;BME280;59446;52.192;4.628;2023-02-03T04:31:59;102467.38;;;15.74;52.37
71601;BME280;59446;52.192;4.628;2023-02-03T04:34:25;102464.72;;;15.76;52.29
71601;BME280;59446;52.192;4.628;2023-02-03T04:36:50;102473.50;;;15.75;52.14
71601;BME280;59446;52.192;4.628;2023-02-03T04:39:15;102464.75;;;15.74;51.65
71601;BME280;59446;52.192;4.628;2023-02-03T04:41:41;102468.34;;;15.70;51.67
71601;BME280;59446;52.192;4.628;2023-02-03T04:44:06;102467.41;;;15.73;51.89
71601;BME280;59446;52.192;4.628;2023-02-03T04:46:32;102477.06;;;15.72;51.60
71601;BME280;59446;52.192;4.628;2023-02-03T04:48:57;102478.00;;;15.70;52.27
71601;BME280;59446;52.192;4.628;2023-02-03T04:51:22;102470.13;;;15.70;51.58
71601;BME280;59446;52.192;4.628;2023-02-03T04:53:48;102475.34;;;15.71;51.92
71601;BME280;59446;52.192;4.628;2023-02-03T04:56:13;102469.13;;;15.74;52.02
71601;BME280;59446;52.192;4.628;2023-02-03T04:58:40;102459.63;;;15.70;52.22
71601;BME280;59446;52.192;4.628;2023-02-03T05:01:07;102464.91;;;15.68;51.90
71601;BME280;59446;52.192;4.628;2023-02-03T05:03:33;102457.88;;;15.69;52.15
71601;BME280;59446;52.192;4.628;2023-02-03T05:05:58;102459.66;;;15.67;51.68
71601;BME280;59446;52.192;4.628;2023-02-03T05:08:24;102454.41;;;15.68;51.84
71601;BME280;59446;52.192;4.628;2023-02-03T05:10:49;102457.06;;;15.65;51.81
71601;BME280;59446;52.192;4.628;2023-02-03T05:13:15;102450.91;;;15.68;52.32
71601;BME280;59446;52.192;4.628;2023-02-03T05:15:40;102457.88;;;15.69;52.01
71601;BME280;59446;52.192;4.628;2023-02-03T05:18:05;102468.41;;;15.69;52.13
71601;BME280;59446;52.192;4.628;2023-02-03T05:20:31;102463.19;;;15.67;52.23
71601;BME280;59446;52.192;4.628;2023-02-03T05:22:57;102468.44;;;15.66;52.08
71601;BME280;59446;52.192;4.628;2023-02-03T05:25:23;102469.34;;;15.63;52.53
71601;BME280;59446;52.192;4.628;2023-02-03T05:27:48;102472.78;;;15.68;52.11
71601;BME280;59446;52.192;4.628;2023-02-03T05:30:13;102467.50;;;15.70;52.10
71601;BME280;59446;52.192;4.628;2023-02-03T05:32:39;102480.75;;;15.62;51.89
71601;BME280;59446;52.192;4.628;2023-02-03T05:35:04;102468.47;;;15.63;51.98
71601;BME280;59446;52.192;4.628;2023-02-03T05:37:30;102459.66;;;15.67;51.66
71601;BME280;59446;52.192;4.628;2023-02-03T05:39:55;102464.91;;;15.68;51.94
71601;BME280;59446;52.192;4.628;2023-02-03T05:42:48;102457.94;;;15.64;52.17
71601;BME280;59446;52.192;4.628;2023-02-03T05:45:14;102452.81;;;15.60;52.43
71601;BME280;59446;52.192;4.628;2023-02-03T05:47:40;102457.03;;;15.68;51.80
71601;BME280;59446;52.192;4.628;2023-02-03T05:50:05;102449.19;;;15.65;52.02
71601;BME280;59446;52.192;4.628;2023-02-03T05:52:31;102461.50;;;15.62;51.81
71601;BME280;59446;52.192;4.628;2023-02-03T05:54:56;102469.38;;;15.62;51.72
71601;BME280;59446;52.192;4.628;2023-02-03T05:57:21;102468.44;;;15.67;51.71
71601;BME280;59446;52.192;4.628;2023-02-03T05:59:47;102468.56;;;15.60;51.77
71601;BME280;59446;52.192;4.628;2023-02-03T06:02:14;102453.66;;;15.60;52.24
71601;BME280;59446;52.192;4.628;2023-02-03T06:04:39;102450.19;;;15.60;52.34
71601;BME280;59446;52.192;4.628;2023-02-03T06:07:05;102461.53;;;15.60;52.10
71601;BME280;59446;52.192;4.628;2023-02-03T06:09:31;102454.56;;;15.59;52.42
71601;BME280;59446;52.192;4.628;2023-02-03T06:11:56;102459.88;;;15.56;51.79
71601;BME280;59446;52.192;4.628;2023-02-03T06:14:21;102454.72;;;15.53;52.23
71601;BME280;59446;52.192;4.628;2023-02-03T06:16:47;102458.16;;;15.55;52.29
71601;BME280;59446;52.192;4.628;2023-02-03T06:19:12;102459.06;;;15.54;52.34
71601;BME280;59446;52.192;4.628;2023-02-03T06:21:38;102466.94;;;15.54;52.10
71601;BME280;59446;52.192;4.628;2023-02-03T06:24:03;102477.47;;;15.53;52.47
71601;BME280;59446;52.192;4.628;2023-02-03T06:26:28;102449.50;;;15.52;52.24
71601;BME280;59446;52.192;4.628;2023-02-03T06:28:54;102452.06;;;15.55;52.21
71601;BME280;59446;52.192;4.628;2023-02-03T06:31:19;102469.66;;;15.51;52.34
71601;BME280;59446;52.192;4.628;2023-02-03T06:33:45;102466.13;;;15.52;52.18
71601;BME280;59446;52.192;4.628;2023-02-03T06:36:10;102466.03;;;15.55;51.85
71601;BME280;59446;52.192;4.628;2023-02-03T06:38:35;102471.38;;;15.52;52.21
71601;BME280;59446;52.192;4.628;2023-02-03T06:41:01;102484.53;;;15.51;52.38
71601;BME280;59446;52.192;4.628;2023-02-03T06:43:26;102486.25;;;15.52;52.36
71601;BME280;59446;52.192;4.628;2023-02-03T06:45:52;102488.06;;;15.50;52.04
71601;BME280;59446;52.192;4.628;2023-02-03T06:48:17;102495.06;;;15.49;51.83
71601;BME280;59446;52.192;4.628;2023-02-03T06:50:43;102494.16;;;15.50;52.02
71601;BME280;59446;52.192;4.628;2023-02-03T06:53:09;102493.38;;;15.47;52.08
71601;BME280;59446;52.192;4.628;2023-02-03T06:55:34;102512.66;;;15.45;52.41
71601;BME280;59446;52.192;4.628;2023-02-03T06:58:00;102502.09;;;15.49;52.12
71601;BME280;59446;52.192;4.628;2023-02-03T07:00:25;102495.19;;;15.44;51.99
71601;BME280;59446;52.192;4.628;2023-02-03T07:02:55;102502.97;;;15.48;52.10
71601;BME280;59446;52.192;4.628;2023-02-03T07:05:21;102513.53;;;15.46;51.96
71601;BME280;59446;52.192;4.628;2023-02-03T07:07:47;102515.25;;;15.47;52.17
71601;BME280;59446;52.192;4.628;2023-02-03T07:10:12;102522.34;;;15.42;52.12
71601;BME280;59446;52.192;4.628;2023-02-03T07:12:38;102505.72;;;15.41;52.10
71601;BME280;59446;52.192;4.628;2023-02-03T07:15:04;102523.16;;;15.45;52.18
71601;BME280;59446;52.192;4.628;2023-02-03T07:17:30;102526.72;;;15.43;52.37
71601;BME280;59446;52.192;4.628;2023-02-03T07:19:55;102519.75;;;15.40;51.97
71601;BME280;59446;52.192;4.628;2023-02-03T07:22:20;102510.13;;;15.39;51.85
71601;BME280;59446;52.192;4.628;2023-02-03T07:24:46;102512.75;;;15.39;52.51
71601;BME280;59446;52.192;4.628;2023-02-03T07:27:11;102525.81;;;15.44;52.06
71601;BME280;59446;52.192;4.628;2023-02-03T07:29:36;102526.69;;;15.44;51.90
71601;BME280;59446;52.192;4.628;2023-02-03T07:32:02;102512.66;;;15.45;51.80
71601;BME280;59446;52.192;4.628;2023-02-03T07:34:27;102517.97;;;15.41;51.85
71601;BME280;59446;52.192;4.628;2023-02-03T07:36:53;102520.72;;;15.36;52.47
71601;BME280;59446;52.192;4.628;2023-02-03T07:39:18;102506.63;;;15.40;52.36
71601;BME280;59446;52.192;4.628;2023-02-03T07:41:44;102511.72;;;15.48;52.11
71601;BME280;59446;52.192;4.628;2023-02-03T07:44:09;102514.03;;;15.62;51.77
71601;BME280;59446;52.192;4.628;2023-02-03T07:46:35;102512.88;;;15.75;51.92
71601;BME280;59446;52.192;4.628;2023-02-03T07:49:04;102518.09;;;15.77;51.38
71601;BME280;59446;52.192;4.628;2023-02-03T07:51:30;102521.78;;;15.69;51.33
71601;BME280;59446;52.192;4.628;2023-02-03T07:53:56;102519.19;;;15.68;51.58
71601;BME280;59446;52.192;4.628;2023-02-03T07:56:21;102535.84;;;15.65;51.80
71601;BME280;59446;52.192;4.628;2023-02-03T07:58:46;102537.59;;;15.65;51.58
71601;BME280;59446;52.192;4.628;2023-02-03T08:01:14;102535.84;;;15.64;52.05
71601;BME280;59446;52.192;4.628;2023-02-03T08:03:40;102542.84;;;15.66;51.77
71601;BME280;59446;52.192;4.628;2023-02-03T08:06:06;102539.31;;;15.69;51.89
71601;BME280;59446;52.192;4.628;2023-02-03T08:08:32;102541.06;;;15.67;51.62
71601;BME280;59446;52.192;4.628;2023-02-03T08:10:58;102545.47;;;15.66;51.70
71601;BME280;59446;52.192;4.628;2023-02-03T08:13:23;102552.44;;;15.69;51.87
71601;BME280;59446;52.192;4.628;2023-02-03T08:15:49;102558.41;;;15.75;52.03
71601;BME280;59446;52.192;4.628;2023-02-03T08:18:14;102557.19;;;15.90;51.34
71601;BME280;59446;52.192;4.628;2023-02-03T08:20:39;102569.84;;;16.12;51.38
71601;BME280;59446;52.192;4.628;2023-02-03T08:23:05;102573.97;;;16.22;51.64
71601;BME280;59446;52.192;4.628;2023-02-03T08:25:30;102552.84;;;16.25;51.07
71601;BME280;59446;52.192;4.628;2023-02-03T08:27:56;102569.44;;;16.27;51.14
71601;BME280;59446;52.192;4.628;2023-02-03T08:30:21;102578.84;;;16.37;51.02
71601;BME280;59446;52.192;4.628;2023-02-03T08:32:47;102589.84;;;16.53;50.94
71601;BME280;59446;52.192;4.628;2023-02-03T08:35:13;102594.63;;;16.73;50.44
71601;BME280;59446;52.192;4.628;2023-02-03T08:37:38;102582.06;;;16.84;50.45
71601;BME280;59446;52.192;4.628;2023-02-03T08:40:04;102557.47;;;16.85;50.28
71601;BME280;59446;52.192;4.628;2023-02-03T08:42:30;102564.50;;;16.84;50.83
71601;BME280;59446;52.192;4.628;2023-02-03T08:44:56;102581.75;;;16.94;50.79
71601;BME280;59446;52.192;4.628;2023-02-03T08:47:21;102601.53;;;17.09;50.47
71601;BME280;59446;52.192;4.628;2023-02-03T08:49:46;102598.59;;;17.20;50.21
71601;BME280;59446;52.192;4.628;2023-02-03T08:52:12;102602.06;;;17.22;50.00
71601;BME280;59446;52.192;4.628;2023-02-03T08:54:38;102598.66;;;17.18;50.36
71601;BME280;59446;52.192;4.628;2023-02-03T08:57:04;102602.00;;;17.25;50.24
71601;BME280;59446;52.192;4.628;2023-02-03T08:59:29;102600.22;;;17.25;49.76
71601;BME280;59446;52.192;4.628;2023-02-03T09:01:55;102621.31;;;17.24;50.01
71601;BME280;59446;52.192;4.628;2023-02-03T09:04:21;102610.91;;;17.19;50.30
71601;BME280;59446;52.192;4.628;2023-02-03T09:06:50;102602.81;;;17.27;50.12
71601;BME280;59446;52.192;4.628;2023-02-03T09:09:16;102619.47;;;17.27;50.23
71601;BME280;59446;52.192;4.628;2023-02-03T09:11:42;102630.72;;;17.33;50.25
71601;BME280;59446;52.192;4.628;2023-02-03T09:14:08;102608.97;;;17.26;50.47
71601;BME280;59446;52.192;4.628;2023-02-03T09:16:34;102601.91;;;17.28;50.03
71601;BME280;59446;52.192;4.628;2023-02-03T09:18:59;102622.91;;;17.30;49.99
71601;BME280;59446;52.192;4.628;2023-02-03T09:21:25;102630.03;;;17.26;50.40
71601;BME280;59446;52.192;4.628;2023-02-03T09:23:50;102622.25;;;17.21;50.59
71601;BME280;59446;52.192;4.628;2023-02-03T09:26:16;102621.44;;;17.19;50.60
71601;BME280;59446;52.192;4.628;2023-02-03T09:28:42;102609.31;;;17.14;50.73
71601;BME280;59446;52.192;4.628;2023-02-03T09:31:10;102612.06;;;17.09;50.62
71601;BME280;59446;52.192;4.628;2023-02-03T09:33:36;102625.41;;;17.03;50.97
71601;BME280;59446;52.192;4.628;2023-02-03T09:36:03;102625.41;;;17.03;50.83
71601;BME280;59446;52.192;4.628;2023-02-03T09:38:30;102619.31;;;17.01;51.15
71601;BME280;59446;52.192;4.628;2023-02-03T09:41:00;102627.22;;;17.01;51.04
71601;BME280;59446;52.192;4.628;2023-02-03T09:46:05;102646.38;;;17.06;51.19
71601;BME280;59446;52.192;4.628;2023-02-03T09:48:42;102645.63;;;17.01;51.10
71601;BME280;59446;52.192;4.628;2023-02-03T09:51:19;102662.16;;;17.06;50.78
71601;BME280;59446;52.192;4.628;2023-02-03T09:53:50;102659.56;;;17.05;51.19
71601;BME280;59446;52.192;4.628;2023-02-03T09:56:31;102649.00;;;17.06;51.00
71601;BME280;59446;52.192;4.628;2023-02-03T09:58:57;102662.09;;;17.09;51.07
71601;BME280;59446;52.192;4.628;2023-02-03T10:04:23;102674.84;;;17.24;51.06
71601;BME280;59446;52.192;4.628;2023-02-03T10:07:03;102675.22;;;17.42;50.01
71601;BME280;59446;52.192;4.628;2023-02-03T10:17:42;102697.31;;;18.00;49.50
71601;BME280;59446;52.192;4.628;2023-02-03T10:20:16;102691.75;;;18.09;49.25
71601;BME280;59446;52.192;4.628;2023-02-03T10:22:51;102710.75;;;17.92;49.68
71601;BME280;59446;52.192;4.628;2023-02-03T10:25:32;102701.59;;;18.04;49.86
71601;BME280;59446;52.192;4.628;2023-02-03T10:28:00;102701.31;;;18.13;49.61
71601;BME280;59446;52.192;4.628;2023-02-03T10:30:31;102708.53;;;18.06;49.49
71601;BME280;59446;52.192;4.628;2023-02-03T10:33:10;102710.06;;;18.15;49.16
71601;BME280;59446;52.192;4.628;2023-02-03T10:36:18;102718.13;;;18.09;49.52
71601;BME280;59446;52.192;4.628;2023-02-03T10:39:02;102713.47;;;18.18;48.70
71601;BME280;59446;52.192;4.628;2023-02-03T10:41:32;102727.84;;;18.07;49.63
71601;BME280;59446;52.192;4.628;2023-02-03T10:44:01;102728.47;;;18.16;49.05
71601;BME280;59446;52.192;4.628;2023-02-03T10:46:31;102723.09;;;18.19;49.13
71601;BME280;59446;52.192;4.628;2023-02-03T10:48:57;102719.34;;;18.27;48.79
71601;BME280;59446;52.192;4.628;2023-02-03T10:51:35;102722.75;;;18.30;48.75
71601;BME280;59446;52.192;4.628;2023-02-03T10:54:01;102719.31;;;18.28;49.11
71601;BME280;59446;52.192;4.628;2023-02-03T10:56:44;102713.94;;;18.31;48.89
71601;BME280;59446;52.192;4.628;2023-02-03T10:59:29;102720.31;;;18.24;48.63
71601;BME280;59446;52.192;4.628;2023-02-03T11:01:55;102720.47;;;18.19;48.68
71601;BME280;59446;52.192;4.628;2023-02-03T11:04:29;102728.06;;;18.29;48.69
71601;BME280;59446;52.192;4.628;2023-02-03T11:07:06;102729.84;;;18.28;48.75
71601;BME280;59446;52.192;4.628;2023-02-03T11:09:47;102738.97;;;18.18;49.06
71601;BME280;59446;52.192;4.628;2023-02-03T11:12:17;102729.00;;;18.28;48.94
71601;BME280;59446;52.192;4.628;2023-02-03T11:14:44;102731.72;;;18.25;48.77
71601;BME280;59446;52.192;4.628;2023-02-03T11:19:43;102724.31;;;18.37;48.40
71601;BME280;59446;52.192;4.628;2023-02-03T11:22:10;102725.13;;;18.39;48.57
71601;BME280;59446;52.192;4.628;2023-02-03T11:24:38;102736.53;;;18.41;48.57
71601;BME280;59446;52.192;4.628;2023-02-03T11:27:14;102726.94;;;18.37;48.58
71601;BME280;59446;52.192;4.628;2023-02-03T11:29:47;102724.97;;;18.45;48.65
71601;BME280;59446;52.192;4.628;2023-02-03T11:34:57;102726.28;;;18.59;48.42
71601;BME280;59446;52.192;4.628;2023-02-03T11:37:53;102736.88;;;18.57;48.69
71601;BME280;59446;52.192;4.628;2023-02-03T11:42:58;102741.41;;;18.54;48.27
71601;BME280;59446;52.192;4.628;2023-02-03T11:45:47;102735.41;;;18.48;48.35
71601;BME280;59446;52.192;4.628;2023-02-03T11:48:30;102724.56;;;18.58;48.34
71601;BME280;59446;52.192;4.628;2023-02-03T12:10:31;102724.44;;;19.65;46.13
71601;BME280;59446;52.192;4.628;2023-02-03T12:16:01;102740.09;;;19.46;46.33
71601;BME280;59446;52.192;4.628;2023-02-03T12:18:50;102747.72;;;19.55;46.63
71601;BME280;59446;52.192;4.628;2023-02-03T12:21:42;102761.97;;;19.51;46.76
71601;BME280;59446;52.192;4.628;2023-02-03T12:26:45;102763.78;;;19.23;47.40
71601;BME280;59446;52.192;4.628;2023-02-03T12:29:21;102757.69;;;19.21;47.72
71601;BME280;59446;52.192;4.628;2023-02-03T12:34:34;102744.84;;;19.10;48.01
71601;BME280;59446;52.192;4.628;2023-02-03T12:37:12;102746.81;;;19.03;48.31
71601;BME280;59446;52.192;4.628;2023-02-03T12:39:53;102757.47;;;19.00;48.45
71601;BME280;59446;52.192;4.628;2023-02-03T12:42:24;102750.59;;;18.96;48.56
71601;BME280;59446;52.192;4.628;2023-02-03T12:45:09;102766.53;;;18.93;48.52
71601;BME280;59446;52.192;4.628;2023-02-03T12:50:12;102766.53;;;18.93;48.51
71601;BME280;59446;52.192;4.628;2023-02-03T12:52:54;102769.28;;;18.90;48.69
71601;BME280;59446;52.192;4.628;2023-02-03T12:55:32;102771.97;;;18.89;48.56
71601;BME280;59446;52.192;4.628;2023-02-03T12:58:02;102774.59;;;18.89;48.12
71601;BME280;59446;52.192;4.628;2023-02-03T13:00:45;102781.66;;;18.88;48.17
71601;BME280;59446;52.192;4.628;2023-02-03T13:06:31;102788.72;;;18.88;47.96
71601;BME280;59446;52.192;4.628;2023-02-03T13:09:36;102787.84;;;18.87;47.97
71601;BME280;59446;52.192;4.628;2023-02-03T13:15:19;102791.50;;;18.83;48.16
71601;BME280;59446;52.192;4.628;2023-02-03T13:17:42;102801.06;;;18.87;48.04
71601;BME280;59446;52.192;4.628;2023-02-03T13:20:22;102815.28;;;18.83;48.06
71601;BME280;59446;52.192;4.628;2023-02-03T13:22:48;102805.53;;;18.85;47.87
71601;BME280;59446;52.192;4.628;2023-02-03T13:25:22;102815.13;;;18.88;48.24
71601;BME280;59446;52.192;4.628;2023-02-03T13:28:42;102819.44;;;18.90;48.18
71601;BME280;59446;52.192;4.628;2023-02-03T13:31:48;102828.47;;;18.83;48.09
71601;BME280;59446;52.192;4.628;2023-02-03T13:37:08;102826.69;;;18.84;48.15
71601;BME280;59446;52.192;4.628;2023-02-03T13:40:09;102828.41;;;18.85;48.03
71601;BME280;59446;52.192;4.628;2023-02-03T13:42:44;102828.31;;;18.88;48.27
71601;BME280;59446;52.192;4.628;2023-02-03T13:45:30;102819.59;;;18.86;48.68
71601;BME280;59446;52.192;4.628;2023-02-03T13:48:07;102819.53;;;18.87;48.30
71601;BME280;59446;52.192;4.628;2023-02-03T13:50:34;102822.06;;;18.90;48.55
71601;BME280;59446;52.192;4.628;2023-02-03T13:53:20;102815.97;;;18.88;48.75
71601;BME280;59446;52.192;4.628;2023-02-03T13:56:01;102821.13;;;18.93;48.75
71601;BME280;59446;52.192;4.628;2023-02-03T13:58:29;102826.50;;;18.90;48.60
71601;BME280;59446;52.192;4.628;2023-02-03T14:01:03;102829.03;;;18.93;48.74
71601;BME280;59446;52.192;4.628;2023-02-03T14:06:04;102834.09;;;18.99;48.65
71601;BME280;59446;52.192;4.628;2023-02-03T14:16:40;102838.16;;;19.10;48.02
71601;BME280;59446;52.192;4.628;2023-02-03T14:19:10;102846.22;;;19.06;48.15
71601;BME280;59446;52.192;4.628;2023-02-03T14:24:13;102844.56;;;19.02;48.57
71601;BME280;59446;52.192;4.628;2023-02-03T14:29:06;102854.16;;;19.06;48.43
71601;BME280;59446;52.192;4.628;2023-02-03T14:31:52;102854.31;;;19.00;48.41
71601;BME280;59446;52.192;4.628;2023-02-03T14:34:28;102853.28;;;19.05;48.39
71601;BME280;59446;52.192;4.628;2023-02-03T14:36:54;102861.00;;;19.12;48.25
71601;BME280;59446;52.192;4.628;2023-02-03T14:39:58;102870.50;;;19.17;48.18
71601;BME280;59446;52.192;4.628;2023-02-03T14:53:48;102878.28;;;19.22;48.73
71601;BME280;59446;52.192;4.628;2023-02-03T14:56:30;102872.13;;;19.21;48.83
71601;BME280;59446;52.192;4.628;2023-02-03T14:59:23;102877.22;;;19.27;48.52